Terminal Aerodrome Forecast
Issued by NWS

Home | Current Version | Previous Version | Text Only | Print | Product List | Glossary On
Versions: 1 2 3 4 5 6 7 8 9 10 11 12 13 14
000
FTUS46 KMTR 051720
TAFSNS
TAF
KSNS 051720Z 0518/0618 29006KT P6SM SCT012
     FM051900 29011G16KT P6SM FEW012 FEW250
     FM060200 29009KT P6SM BKN010
     FM060400 29005KT P6SM OVC008
     FM061730 VRB04KT P6SM FEW008 SCT012=

USA.gov is the U.S. government's official web portal to all federal, state and local government web resources and services.